sensor_id;sensor_type;location;lat;lon;timestamp;P1;durP1;ratioP1;P2;durP2;ratioP2
19969;SDS011;10146;47.754;9.566;2023-08-06T00:00:04;5.78;;;5.13;;
19969;SDS011;10146;47.754;9.566;2023-08-06T00:02:30;6.63;;;5.50;;
19969;SDS011;10146;47.754;9.566;2023-08-06T00:04:56;5.43;;;4.95;;
19969;SDS011;10146;47.754;9.566;2023-08-06T00:07:21;5.60;;;5.20;;
19969;SDS011;10146;47.754;9.566;2023-08-06T00:09:47;5.53;;;5.05;;
19969;SDS011;10146;47.754;9.566;2023-08-06T00:12:12;6.03;;;5.43;;
19969;SDS011;10146;47.754;9.566;2023-08-06T00:14:38;5.97;;;5.47;;
19969;SDS011;10146;47.754;9.566;2023-08-06T00:17:04;6.25;;;5.60;;
19969;SDS011;10146;47.754;9.566;2023-08-06T00:19:30;6.05;;;5.45;;
19969;SDS011;10146;47.754;9.566;2023-08-06T00:21:56;5.75;;;5.25;;
19969;SDS011;10146;47.754;9.566;2023-08-06T00:24:22;6.28;;;5.68;;
19969;SDS011;10146;47.754;9.566;2023-08-06T00:26:47;6.55;;;5.88;;
19969;SDS011;10146;47.754;9.566;2023-08-06T00:29:13;6.20;;;5.60;;
19969;SDS011;10146;47.754;9.566;2023-08-06T00:31:38;6.72;;;6.00;;
19969;SDS011;10146;47.754;9.566;2023-08-06T00:34:04;6.25;;;5.45;;
19969;SDS011;10146;47.754;9.566;2023-08-06T00:36:29;6.35;;;5.70;;
19969;SDS011;10146;47.754;9.566;2023-08-06T00:38:55;8.05;;;5.50;;
19969;SDS011;10146;47.754;9.566;2023-08-06T00:41:21;6.20;;;5.60;;
19969;SDS011;10146;47.754;9.566;2023-08-06T00:43:46;5.97;;;5.47;;
19969;SDS011;10146;47.754;9.566;2023-08-06T00:46:12;5.75;;;5.25;;
19969;SDS011;10146;47.754;9.566;2023-08-06T00:48:38;5.53;;;5.05;;
19969;SDS011;10146;47.754;9.566;2023-08-06T00:51:05;5.70;;;5.20;;
19969;SDS011;10146;47.754;9.566;2023-08-06T00:53:30;5.38;;;4.70;;
19969;SDS011;10146;47.754;9.566;2023-08-06T00:55:56;5.68;;;5.18;;
19969;SDS011;10146;47.754;9.566;2023-08-06T00:58:23;5.22;;;4.80;;
19969;SDS011;10146;47.754;9.566;2023-08-06T01:00:48;5.22;;;4.68;;
19969;SDS011;10146;47.754;9.566;2023-08-06T01:03:14;5.03;;;4.53;;
19969;SDS011;10146;47.754;9.566;2023-08-06T01:05:40;5.28;;;4.88;;
19969;SDS011;10146;47.754;9.566;2023-08-06T01:13:43;6.07;;;4.88;;
19969;SDS011;10146;47.754;9.566;2023-08-06T01:16:15;5.95;;;5.05;;
19969;SDS011;10146;47.754;9.566;2023-08-06T01:18:42;5.13;;;4.65;;
19969;SDS011;10146;47.754;9.566;2023-08-06T01:21:11;7.10;;;5.43;;
19969;SDS011;10146;47.754;9.566;2023-08-06T01:23:37;5.85;;;4.97;;
19969;SDS011;10146;47.754;9.566;2023-08-06T01:31:37;5.43;;;4.93;;
19969;SDS011;10146;47.754;9.566;2023-08-06T01:34:07;5.45;;;4.88;;
19969;SDS011;10146;47.754;9.566;2023-08-06T01:36:38;6.40;;;5.20;;
19969;SDS011;10146;47.754;9.566;2023-08-06T01:39:05;5.43;;;4.93;;
19969;SDS011;10146;47.754;9.566;2023-08-06T01:41:30;5.72;;;4.85;;
19969;SDS011;10146;47.754;9.566;2023-08-06T01:43:56;5.40;;;4.90;;
19969;SDS011;10146;47.754;9.566;2023-08-06T01:46:22;5.68;;;5.18;;
19969;SDS011;10146;47.754;9.566;2023-08-06T01:48:47;4.95;;;4.45;;
19969;SDS011;10146;47.754;9.566;2023-08-06T01:51:13;5.90;;;5.00;;
19969;SDS011;10146;47.754;9.566;2023-08-06T01:53:38;5.30;;;4.90;;
19969;SDS011;10146;47.754;9.566;2023-08-06T01:56:04;4.90;;;4.45;;
19969;SDS011;10146;47.754;9.566;2023-08-06T01:58:30;5.30;;;4.68;;
19969;SDS011;10146;47.754;9.566;2023-08-06T02:00:55;5.47;;;4.45;;
19969;SDS011;10146;47.754;9.566;2023-08-06T02:03:23;9.65;;;4.57;;
19969;SDS011;10146;47.754;9.566;2023-08-06T02:05:49;4.68;;;4.28;;
19969;SDS011;10146;47.754;9.566;2023-08-06T02:08:15;6.50;;;4.70;;
19969;SDS011;10146;47.754;9.566;2023-08-06T02:10:40;5.80;;;5.25;;
19969;SDS011;10146;47.754;9.566;2023-08-06T02:13:06;5.43;;;4.93;;
19969;SDS011;10146;47.754;9.566;2023-08-06T02:15:32;5.50;;;5.00;;
19969;SDS011;10146;47.754;9.566;2023-08-06T02:17:57;5.53;;;5.05;;
19969;SDS011;10146;47.754;9.566;2023-08-06T02:20:23;5.20;;;4.70;;
19969;SDS011;10146;47.754;9.566;2023-08-06T02:22:48;5.00;;;4.60;;
19969;SDS011;10146;47.754;9.566;2023-08-06T02:25:14;4.78;;;4.30;;
19969;SDS011;10146;47.754;9.566;2023-08-06T02:27:40;4.95;;;4.45;;
19969;SDS011;10146;47.754;9.566;2023-08-06T02:30:05;5.07;;;4.22;;
19969;SDS011;10146;47.754;9.566;2023-08-06T02:32:31;5.70;;;4.63;;
19969;SDS011;10146;47.754;9.566;2023-08-06T02:35:00;5.00;;;4.60;;
19969;SDS011;10146;47.754;9.566;2023-08-06T02:37:26;5.28;;;4.35;;
19969;SDS011;10146;47.754;9.566;2023-08-06T02:39:52;5.63;;;4.88;;
19969;SDS011;10146;47.754;9.566;2023-08-06T02:42:17;5.78;;;4.30;;
19969;SDS011;10146;47.754;9.566;2023-08-06T02:44:43;4.68;;;4.28;;
19969;SDS011;10146;47.754;9.566;2023-08-06T02:47:08;4.28;;;3.95;;
19969;SDS011;10146;47.754;9.566;2023-08-06T02:49:34;4.90;;;4.40;;
19969;SDS011;10146;47.754;9.566;2023-08-06T02:51:59;7.22;;;4.60;;
19969;SDS011;10146;47.754;9.566;2023-08-06T02:54:25;5.28;;;4.20;;
19969;SDS011;10146;47.754;9.566;2023-08-06T02:56:51;4.95;;;4.53;;
19969;SDS011;10146;47.754;9.566;2023-08-06T02:59:16;6.35;;;4.22;;
19969;SDS011;10146;47.754;9.566;2023-08-06T03:01:42;4.82;;;4.40;;
19969;SDS011;10146;47.754;9.566;2023-08-06T03:04:07;4.93;;;4.45;;
19969;SDS011;10146;47.754;9.566;2023-08-06T03:06:33;4.82;;;4.43;;
19969;SDS011;10146;47.754;9.566;2023-08-06T03:08:58;4.72;;;4.20;;
19969;SDS011;10146;47.754;9.566;2023-08-06T03:11:24;4.30;;;4.00;;
19969;SDS011;10146;47.754;9.566;2023-08-06T03:13:50;5.55;;;4.75;;
19969;SDS011;10146;47.754;9.566;2023-08-06T03:16:15;4.45;;;4.05;;
19969;SDS011;10146;47.754;9.566;2023-08-06T03:18:44;4.55;;;4.15;;
19969;SDS011;10146;47.754;9.566;2023-08-06T03:21:09;5.35;;;3.80;;
19969;SDS011;10146;47.754;9.566;2023-08-06T03:23:35;4.28;;;3.83;;
19969;SDS011;10146;47.754;9.566;2023-08-06T03:26:01;5.80;;;3.88;;
19969;SDS011;10146;47.754;9.566;2023-08-06T03:28:27;4.45;;;4.05;;
19969;SDS011;10146;47.754;9.566;2023-08-06T03:31:02;4.53;;;3.97;;
19969;SDS011;10146;47.754;9.566;2023-08-06T03:33:28;4.32;;;4.00;;
19969;SDS011;10146;47.754;9.566;2023-08-06T03:35:54;10.02;;;4.35;;
19969;SDS011;10146;47.754;9.566;2023-08-06T03:38:20;5.00;;;4.32;;
19969;SDS011;10146;47.754;9.566;2023-08-06T03:40:46;4.47;;;4.18;;
19969;SDS011;10146;47.754;9.566;2023-08-06T03:43:12;4.60;;;4.10;;
19969;SDS011;10146;47.754;9.566;2023-08-06T03:45:37;4.90;;;4.45;;
19969;SDS011;10146;47.754;9.566;2023-08-06T03:48:03;4.50;;;4.05;;
19969;SDS011;10146;47.754;9.566;2023-08-06T03:50:29;6.00;;;4.63;;
19969;SDS011;10146;47.754;9.566;2023-08-06T03:52:54;4.75;;;4.25;;
19969;SDS011;10146;47.754;9.566;2023-08-06T03:55:20;5.68;;;4.30;;
19969;SDS011;10146;47.754;9.566;2023-08-06T03:57:46;4.53;;;4.13;;
19969;SDS011;10146;47.754;9.566;2023-08-06T04:00:12;6.35;;;4.20;;
19969;SDS011;10146;47.754;9.566;2023-08-06T04:02:38;5.65;;;4.63;;
19969;SDS011;10146;47.754;9.566;2023-08-06T04:05:03;4.65;;;4.20;;
19969;SDS011;10146;47.754;9.566;2023-08-06T04:07:29;3.50;;;3.20;;
19969;SDS011;10146;47.754;9.566;2023-08-06T04:09:56;5.30;;;4.32;;
19969;SDS011;10146;47.754;9.566;2023-08-06T04:12:23;3.60;;;3.30;;
19969;SDS011;10146;47.754;9.566;2023-08-06T04:14:49;3.83;;;3.42;;
19969;SDS011;10146;47.754;9.566;2023-08-06T04:17:17;5.43;;;3.72;;
19969;SDS011;10146;47.754;9.566;2023-08-06T04:19:45;3.60;;;3.30;;
19969;SDS011;10146;47.754;9.566;2023-08-06T04:22:12;3.55;;;3.25;;
19969;SDS011;10146;47.754;9.566;2023-08-06T04:24:38;3.72;;;3.33;;
19969;SDS011;10146;47.754;9.566;2023-08-06T04:27:03;4.57;;;3.70;;
19969;SDS011;10146;47.754;9.566;2023-08-06T04:29:29;5.30;;;3.50;;
19969;SDS011;10146;47.754;9.566;2023-08-06T04:31:55;3.42;;;2.80;;
19969;SDS011;10146;47.754;9.566;2023-08-06T04:34:21;3.53;;;3.22;;
19969;SDS011;10146;47.754;9.566;2023-08-06T04:36:46;4.43;;;2.47;;
19969;SDS011;10146;47.754;9.566;2023-08-06T04:39:12;3.60;;;2.58;;
19969;SDS011;10146;47.754;9.566;2023-08-06T04:41:37;2.33;;;2.00;;
19969;SDS011;10146;47.754;9.566;2023-08-06T04:44:03;3.80;;;2.13;;
19969;SDS011;10146;47.754;9.566;2023-08-06T04:46:29;3.88;;;2.40;;
19969;SDS011;10146;47.754;9.566;2023-08-06T04:48:54;3.65;;;2.05;;
19969;SDS011;10146;47.754;9.566;2023-08-06T04:51:20;2.22;;;1.90;;
19969;SDS011;10146;47.754;9.566;2023-08-06T04:53:46;2.60;;;2.20;;
19969;SDS011;10146;47.754;9.566;2023-08-06T04:56:11;3.63;;;2.20;;
19969;SDS011;10146;47.754;9.566;2023-08-06T04:58:37;3.42;;;2.20;;
19969;SDS011;10146;47.754;9.566;2023-08-06T05:01:02;3.30;;;2.20;;
19969;SDS011;10146;47.754;9.566;2023-08-06T05:03:28;1.92;;;1.67;;
19969;SDS011;10146;47.754;9.566;2023-08-06T05:05:54;2.83;;;1.92;;
19969;SDS011;10146;47.754;9.566;2023-08-06T05:08:20;2.47;;;2.05;;
19969;SDS011;10146;47.754;9.566;2023-08-06T05:10:45;4.45;;;2.13;;
19969;SDS011;10146;47.754;9.566;2023-08-06T05:13:11;3.55;;;2.30;;
19969;SDS011;10146;47.754;9.566;2023-08-06T05:15:37;4.07;;;2.13;;
19969;SDS011;10146;47.754;9.566;2023-08-06T05:18:04;2.90;;;2.60;;
19969;SDS011;10146;47.754;9.566;2023-08-06T05:20:30;4.10;;;2.72;;
19969;SDS011;10146;47.754;9.566;2023-08-06T05:22:56;4.07;;;2.63;;
19969;SDS011;10146;47.754;9.566;2023-08-06T05:25:21;3.72;;;2.40;;
19969;SDS011;10146;47.754;9.566;2023-08-06T05:27:47;3.92;;;2.47;;
19969;SDS011;10146;47.754;9.566;2023-08-06T05:30:12;2.47;;;2.05;;
19969;SDS011;10146;47.754;9.566;2023-08-06T05:32:38;2.78;;;2.30;;
19969;SDS011;10146;47.754;9.566;2023-08-06T05:35:04;2.60;;;2.17;;
19969;SDS011;10146;47.754;9.566;2023-08-06T05:37:30;2.30;;;2.05;;
19969;SDS011;10146;47.754;9.566;2023-08-06T05:39:55;2.55;;;2.25;;
19969;SDS011;10146;47.754;9.566;2023-08-06T05:42:21;3.53;;;2.03;;
19969;SDS011;10146;47.754;9.566;2023-08-06T05:44:46;4.75;;;2.33;;
19969;SDS011;10146;47.754;9.566;2023-08-06T05:47:12;3.22;;;2.10;;
19969;SDS011;10146;47.754;9.566;2023-08-06T05:49:37;5.07;;;2.10;;
19969;SDS011;10146;47.754;9.566;2023-08-06T05:52:03;1.92;;;1.75;;
19969;SDS011;10146;47.754;9.566;2023-08-06T05:54:31;3.15;;;2.35;;
19969;SDS011;10146;47.754;9.566;2023-08-06T05:56:57;2.35;;;1.30;;
19969;SDS011;10146;47.754;9.566;2023-08-06T05:59:22;4.65;;;1.60;;
19969;SDS011;10146;47.754;9.566;2023-08-06T06:01:48;1.75;;;1.00;;
19969;SDS011;10146;47.754;9.566;2023-08-06T06:04:13;2.50;;;1.00;;
19969;SDS011;10146;47.754;9.566;2023-08-06T06:06:39;1.83;;;0.80;;
19969;SDS011;10146;47.754;9.566;2023-08-06T06:09:06;2.45;;;0.60;;
19969;SDS011;10146;47.754;9.566;2023-08-06T06:11:32;1.90;;;0.52;;
19969;SDS011;10146;47.754;9.566;2023-08-06T06:13:57;1.98;;;0.70;;
19969;SDS011;10146;47.754;9.566;2023-08-06T06:16:23;2.20;;;0.60;;
19969;SDS011;10146;47.754;9.566;2023-08-06T06:18:49;1.77;;;0.75;;
19969;SDS011;10146;47.754;9.566;2023-08-06T06:21:14;2.50;;;0.60;;
19969;SDS011;10146;47.754;9.566;2023-08-06T06:23:40;1.05;;;0.47;;
19969;SDS011;10146;47.754;9.566;2023-08-06T06:26:06;1.65;;;0.50;;
19969;SDS011;10146;47.754;9.566;2023-08-06T06:28:31;1.38;;;0.60;;
19969;SDS011;10146;47.754;9.566;2023-08-06T06:31:03;2.63;;;0.50;;
19969;SDS011;10146;47.754;9.566;2023-08-06T06:33:29;0.77;;;0.40;;
19969;SDS011;10146;47.754;9.566;2023-08-06T06:35:54;1.27;;;0.47;;
19969;SDS011;10146;47.754;9.566;2023-08-06T06:38:20;0.70;;;0.50;;
19969;SDS011;10146;47.754;9.566;2023-08-06T06:41:04;0.90;;;0.40;;
19969;SDS011;10146;47.754;9.566;2023-08-06T06:43:30;1.52;;;0.40;;
19969;SDS011;10146;47.754;9.566;2023-08-06T06:45:56;1.27;;;0.40;;
19969;SDS011;10146;47.754;9.566;2023-08-06T06:48:23;0.73;;;0.35;;
19969;SDS011;10146;47.754;9.566;2023-08-06T06:50:48;1.15;;;0.68;;
19969;SDS011;10146;47.754;9.566;2023-08-06T06:53:14;0.75;;;0.40;;
19969;SDS011;10146;47.754;9.566;2023-08-06T06:55:40;1.02;;;0.75;;
19969;SDS011;10146;47.754;9.566;2023-08-06T06:58:05;2.70;;;0.50;;
19969;SDS011;10146;47.754;9.566;2023-08-06T07:00:31;3.60;;;0.50;;
19969;SDS011;10146;47.754;9.566;2023-08-06T07:02:56;1.73;;;0.50;;
19969;SDS011;10146;47.754;9.566;2023-08-06T07:05:22;1.50;;;0.73;;
19969;SDS011;10146;47.754;9.566;2023-08-06T07:07:47;1.73;;;0.55;;
19969;SDS011;10146;47.754;9.566;2023-08-06T07:10:13;3.83;;;0.98;;
19969;SDS011;10146;47.754;9.566;2023-08-06T07:12:39;1.60;;;0.57;;
19969;SDS011;10146;47.754;9.566;2023-08-06T07:15:05;1.48;;;0.50;;
19969;SDS011;10146;47.754;9.566;2023-08-06T07:17:31;1.52;;;0.60;;
19969;SDS011;10146;47.754;9.566;2023-08-06T07:19:57;2.67;;;0.70;;
19969;SDS011;10146;47.754;9.566;2023-08-06T07:22:22;1.60;;;0.60;;
19969;SDS011;10146;47.754;9.566;2023-08-06T07:24:48;1.80;;;0.57;;
19969;SDS011;10146;47.754;9.566;2023-08-06T07:27:14;0.88;;;0.60;;
19969;SDS011;10146;47.754;9.566;2023-08-06T07:29:39;1.30;;;0.98;;
19969;SDS011;10146;47.754;9.566;2023-08-06T07:32:06;2.47;;;0.60;;
19969;SDS011;10146;47.754;9.566;2023-08-06T07:34:32;4.00;;;0.85;;
19969;SDS011;10146;47.754;9.566;2023-08-06T07:36:58;1.38;;;0.47;;
19969;SDS011;10146;47.754;9.566;2023-08-06T07:39:24;1.15;;;0.52;;
19969;SDS011;10146;47.754;9.566;2023-08-06T07:41:49;4.07;;;0.65;;
19969;SDS011;10146;47.754;9.566;2023-08-06T07:44:15;0.95;;;0.70;;
19969;SDS011;10146;47.754;9.566;2023-08-06T07:46:41;0.60;;;0.45;;
19969;SDS011;10146;47.754;9.566;2023-08-06T07:49:06;2.17;;;0.75;;
19969;SDS011;10146;47.754;9.566;2023-08-06T07:51:32;5.10;;;0.85;;
19969;SDS011;10146;47.754;9.566;2023-08-06T07:53:58;2.35;;;0.70;;
19969;SDS011;10146;47.754;9.566;2023-08-06T07:56:23;3.15;;;0.60;;
19969;SDS011;10146;47.754;9.566;2023-08-06T07:58:49;2.92;;;0.40;;
19969;SDS011;10146;47.754;9.566;2023-08-06T08:01:14;2.60;;;0.70;;
19969;SDS011;10146;47.754;9.566;2023-08-06T08:03:40;1.05;;;0.43;;
19969;SDS011;10146;47.754;9.566;2023-08-06T08:06:06;3.08;;;0.60;;
19969;SDS011;10146;47.754;9.566;2023-08-06T08:08:31;1.60;;;0.40;;
19969;SDS011;10146;47.754;9.566;2023-08-06T08:10:57;1.75;;;0.60;;
19969;SDS011;10146;47.754;9.566;2023-08-06T08:13:25;3.08;;;0.50;;
19969;SDS011;10146;47.754;9.566;2023-08-06T08:15:55;1.65;;;0.50;;
19969;SDS011;10146;47.754;9.566;2023-08-06T08:18:23;1.70;;;0.50;;
19969;SDS011;10146;47.754;9.566;2023-08-06T08:20:48;1.52;;;0.60;;
19969;SDS011;10146;47.754;9.566;2023-08-06T08:23:14;2.10;;;0.40;;
19969;SDS011;10146;47.754;9.566;2023-08-06T08:25:39;0.82;;;0.40;;
19969;SDS011;10146;47.754;9.566;2023-08-06T08:28:05;1.13;;;0.38;;
19969;SDS011;10146;47.754;9.566;2023-08-06T08:30:30;1.15;;;0.40;;
19969;SDS011;10146;47.754;9.566;2023-08-06T08:32:56;1.92;;;0.40;;
19969;SDS011;10146;47.754;9.566;2023-08-06T08:35:22;1.13;;;0.30;;
19969;SDS011;10146;47.754;9.566;2023-08-06T08:37:47;1.92;;;0.63;;
19969;SDS011;10146;47.754;9.566;2023-08-06T08:40:14;0.85;;;0.47;;
19969;SDS011;10146;47.754;9.566;2023-08-06T08:42:40;2.22;;;0.40;;
19969;SDS011;10146;47.754;9.566;2023-08-06T08:45:06;1.52;;;0.40;;
19969;SDS011;10146;47.754;9.566;2023-08-06T08:47:38;1.38;;;0.30;;
19969;SDS011;10146;47.754;9.566;2023-08-06T08:50:06;2.00;;;0.40;;
19969;SDS011;10146;47.754;9.566;2023-08-06T08:52:33;1.23;;;0.38;;
19969;SDS011;10146;47.754;9.566;2023-08-06T08:55:01;1.05;;;0.30;;
19969;SDS011;10146;47.754;9.566;2023-08-06T08:57:27;0.55;;;0.30;;
19969;SDS011;10146;47.754;9.566;2023-08-06T08:59:53;1.17;;;0.20;;
19969;SDS011;10146;47.754;9.566;2023-08-06T09:02:18;0.73;;;0.32;;
19969;SDS011;10146;47.754;9.566;2023-08-06T09:04:46;0.70;;;0.30;;
19969;SDS011;10146;47.754;9.566;2023-08-06T09:07:13;1.25;;;0.52;;
19969;SDS011;10146;47.754;9.566;2023-08-06T09:09:43;1.08;;;0.30;;
19969;SDS011;10146;47.754;9.566;2023-08-06T09:12:12;1.35;;;0.43;;
19969;SDS011;10146;47.754;9.566;2023-08-06T09:14:40;1.20;;;0.50;;
19969;SDS011;10146;47.754;9.566;2023-08-06T09:17:06;1.50;;;0.60;;
19969;SDS011;10146;47.754;9.566;2023-08-06T09:19:32;1.50;;;0.30;;
19969;SDS011;10146;47.754;9.566;2023-08-06T09:21:58;0.93;;;0.40;;
19969;SDS011;10146;47.754;9.566;2023-08-06T09:24:24;1.17;;;0.50;;
19969;SDS011;10146;47.754;9.566;2023-08-06T09:26:51;0.80;;;0.30;;
19969;SDS011;10146;47.754;9.566;2023-08-06T09:29:16;0.50;;;0.43;;
19969;SDS011;10146;47.754;9.566;2023-08-06T09:31:49;0.40;;;0.35;;
19969;SDS011;10146;47.754;9.566;2023-08-06T09:34:18;1.75;;;0.38;;
19969;SDS011;10146;47.754;9.566;2023-08-06T09:36:51;1.00;;;0.10;;
19969;SDS011;10146;47.754;9.566;2023-08-06T09:39:19;0.90;;;0.17;;
19969;SDS011;10146;47.754;9.566;2023-08-06T09:41:46;0.47;;;0.30;;
19969;SDS011;10146;47.754;9.566;2023-08-06T09:44:16;0.60;;;0.30;;
19969;SDS011;10146;47.754;9.566;2023-08-06T09:46:47;0.45;;;0.20;;
19969;SDS011;10146;47.754;9.566;2023-08-06T09:49:17;0.47;;;0.22;;
19969;SDS011;10146;47.754;9.566;2023-08-06T09:51:44;0.68;;;0.20;;
19969;SDS011;10146;47.754;9.566;2023-08-06T09:54:14;0.30;;;0.15;;
19969;SDS011;10146;47.754;9.566;2023-08-06T09:56:41;0.10;;;0.10;;
19969;SDS011;10146;47.754;9.566;2023-08-06T09:59:08;1.65;;;0.40;;
19969;SDS011;10146;47.754;9.566;2023-08-06T10:01:34;1.55;;;0.32;;
19969;SDS011;10146;47.754;9.566;2023-08-06T10:04:01;0.50;;;0.20;;
19969;SDS011;10146;47.754;9.566;2023-08-06T10:06:29;0.95;;;0.30;;
19969;SDS011;10146;47.754;9.566;2023-08-06T10:08:55;0.55;;;0.30;;
19969;SDS011;10146;47.754;9.566;2023-08-06T10:11:23;0.10;;;0.10;;
19969;SDS011;10146;47.754;9.566;2023-08-06T10:13:53;1.00;;;0.25;;
19969;SDS011;10146;47.754;9.566;2023-08-06T10:16:25;0.93;;;0.22;;
19969;SDS011;10146;47.754;9.566;2023-08-06T10:18:52;0.75;;;0.28;;
19969;SDS011;10146;47.754;9.566;2023-08-06T10:21:19;0.10;;;0.10;;
19969;SDS011;10146;47.754;9.566;2023-08-06T10:23:49;0.50;;;0.20;;
19969;SDS011;10146;47.754;9.566;2023-08-06T10:26:19;0.35;;;0.10;;
19969;SDS011;10146;47.754;9.566;2023-08-06T10:28:45;0.10;;;0.10;;
19969;SDS011;10146;47.754;9.566;2023-08-06T10:31:10;0.20;;;0.17;;
19969;SDS011;10146;47.754;9.566;2023-08-06T10:33:42;0.65;;;0.30;;
19969;SDS011;10146;47.754;9.566;2023-08-06T10:36:13;0.10;;;0.10;;
19969;SDS011;10146;47.754;9.566;2023-08-06T10:38:46;0.10;;;0.10;;
19969;SDS011;10146;47.754;9.566;2023-08-06T10:41:15;0.10;;;0.10;;
19969;SDS011;10146;47.754;9.566;2023-08-06T10:43:48;1.08;;;0.17;;
19969;SDS011;10146;47.754;9.566;2023-08-06T10:46:22;4.53;;;0.30;;
19969;SDS011;10146;47.754;9.566;2023-08-06T10:48:51;0.47;;;0.10;;
19969;SDS011;10146;47.754;9.566;2023-08-06T10:51:17;2.67;;;0.20;;
19969;SDS011;10146;47.754;9.566;2023-08-06T10:53:46;0.63;;;0.20;;
19969;SDS011;10146;47.754;9.566;2023-08-06T10:56:14;0.70;;;0.20;;
19969;SDS011;10146;47.754;9.566;2023-08-06T10:58:40;0.22;;;0.20;;
19969;SDS011;10146;47.754;9.566;2023-08-06T11:01:07;1.02;;;0.20;;
19969;SDS011;10146;47.754;9.566;2023-08-06T11:03:33;0.35;;;0.10;;
19969;SDS011;10146;47.754;9.566;2023-08-06T11:05:59;0.30;;;0.10;;
19969;SDS011;10146;47.754;9.566;2023-08-06T11:08:29;0.57;;;0.20;;
19969;SDS011;10146;47.754;9.566;2023-08-06T11:11:08;0.10;;;0.10;;
19969;SDS011;10146;47.754;9.566;2023-08-06T11:13:39;1.30;;;0.20;;
19969;SDS011;10146;47.754;9.566;2023-08-06T11:16:05;0.47;;;0.25;;
19969;SDS011;10146;47.754;9.566;2023-08-06T11:18:31;0.10;;;0.10;;
19969;SDS011;10146;47.754;9.566;2023-08-06T11:21:01;0.17;;;0.10;;
19969;SDS011;10146;47.754;9.566;2023-08-06T11:23:27;0.52;;;0.20;;
19969;SDS011;10146;47.754;9.566;2023-08-06T11:25:57;0.90;;;0.10;;
19969;SDS011;10146;47.754;9.566;2023-08-06T11:28:22;0.38;;;0.00;;
19969;SDS011;10146;47.754;9.566;2023-08-06T11:30:49;0.30;;;0.10;;
19969;SDS011;10146;47.754;9.566;2023-08-06T11:33:25;0.20;;;0.10;;
19969;SDS011;10146;47.754;9.566;2023-08-06T11:35:51;0.30;;;0.10;;
19969;SDS011;10146;47.754;9.566;2023-08-06T11:38:17;0.10;;;0.03;;
19969;SDS011;10146;47.754;9.566;2023-08-06T11:40:50;0.80;;;0.10;;
19969;SDS011;10146;47.754;9.566;2023-08-06T11:43:15;0.00;;;0.00;;
19969;SDS011;10146;47.754;9.566;2023-08-06T11:45:43;0.30;;;0.00;;
19969;SDS011;10146;47.754;9.566;2023-08-06T11:48:08;0.10;;;0.10;;
19969;SDS011;10146;47.754;9.566;2023-08-06T11:50:38;0.10;;;0.10;;
19969;SDS011;10146;47.754;9.566;2023-08-06T11:53:04;0.08;;;0.08;;
19969;SDS011;10146;47.754;9.566;2023-08-06T11:55:30;0.10;;;0.10;;
19969;SDS011;10146;47.754;9.566;2023-08-06T11:57:56;0.40;;;0.10;;
19969;SDS011;10146;47.754;9.566;2023-08-06T12:00:23;0.10;;;0.10;;
19969;SDS011;10146;47.754;9.566;2023-08-06T12:02:49;0.10;;;0.10;;
19969;SDS011;10146;47.754;9.566;2023-08-06T12:05:20;0.57;;;0.10;;
19969;SDS011;10146;47.754;9.566;2023-08-06T12:07:52;0.20;;;0.20;;
19969;SDS011;10146;47.754;9.566;2023-08-06T12:10:20;0.10;;;0.10;;
19969;SDS011;10146;47.754;9.566;2023-08-06T12:12:46;0.15;;;0.15;;
19969;SDS011;10146;47.754;9.566;2023-08-06T12:15:12;0.60;;;0.20;;
19969;SDS011;10146;47.754;9.566;2023-08-06T12:17:38;0.15;;;0.10;;
19969;SDS011;10146;47.754;9.566;2023-08-06T12:20:04;0.20;;;0.10;;
19969;SDS011;10146;47.754;9.566;2023-08-06T12:22:30;0.30;;;0.20;;
19969;SDS011;10146;47.754;9.566;2023-08-06T12:25:00;0.20;;;0.15;;
19969;SDS011;10146;47.754;9.566;2023-08-06T12:27:28;0.10;;;0.10;;
19969;SDS011;10146;47.754;9.566;2023-08-06T12:29:53;0.57;;;0.10;;
19969;SDS011;10146;47.754;9.566;2023-08-06T12:32:19;0.10;;;0.10;;
19969;SDS011;10146;47.754;9.566;2023-08-06T12:34:45;0.50;;;0.10;;
19969;SDS011;10146;47.754;9.566;2023-08-06T12:37:10;1.02;;;0.10;;
19969;SDS011;10146;47.754;9.566;2023-08-06T12:39:36;0.95;;;0.10;;
19969;SDS011;10146;47.754;9.566;2023-08-06T12:42:03;0.47;;;0.30;;
19969;SDS011;10146;47.754;9.566;2023-08-06T12:44:30;0.17;;;0.10;;
19969;SDS011;10146;47.754;9.566;2023-08-06T12:46:56;0.20;;;0.20;;
19969;SDS011;10146;47.754;9.566;2023-08-06T12:49:22;1.35;;;0.10;;
19969;SDS011;10146;47.754;9.566;2023-08-06T12:51:48;0.20;;;0.10;;
19969;SDS011;10146;47.754;9.566;2023-08-06T12:54:16;0.45;;;0.08;;
19969;SDS011;10146;47.754;9.566;2023-08-06T12:56:42;0.98;;;0.10;;
19969;SDS011;10146;47.754;9.566;2023-08-06T12:59:09;0.25;;;0.25;;
19969;SDS011;10146;47.754;9.566;2023-08-06T13:01:34;0.15;;;0.15;;
19969;SDS011;10146;47.754;9.566;2023-08-06T13:04:00;0.70;;;0.10;;
19969;SDS011;10146;47.754;9.566;2023-08-06T13:06:26;0.10;;;0.10;;
19969;SDS011;10146;47.754;9.566;2023-08-06T13:08:51;0.95;;;0.13;;
19969;SDS011;10146;47.754;9.566;2023-08-06T13:11:17;0.08;;;0.08;;
19969;SDS011;10146;47.754;9.566;2023-08-06T13:13:44;0.20;;;0.10;;
19969;SDS011;10146;47.754;9.566;2023-08-06T13:16:09;0.82;;;0.15;;
19969;SDS011;10146;47.754;9.566;2023-08-06T13:18:35;0.43;;;0.10;;
19969;SDS011;10146;47.754;9.566;2023-08-06T13:21:00;0.28;;;0.10;;
19969;SDS011;10146;47.754;9.566;2023-08-06T13:23:26;0.10;;;0.10;;
19969;SDS011;10146;47.754;9.566;2023-08-06T13:25:52;0.10;;;0.10;;
19969;SDS011;10146;47.754;9.566;2023-08-06T13:28:18;0.17;;;0.15;;
19969;SDS011;10146;47.754;9.566;2023-08-06T13:30:44;0.30;;;0.20;;
19969;SDS011;10146;47.754;9.566;2023-08-06T13:33:10;1.00;;;0.20;;
19969;SDS011;10146;47.754;9.566;2023-08-06T13:35:37;0.40;;;0.20;;
19969;SDS011;10146;47.754;9.566;2023-08-06T13:38:03;0.30;;;0.20;;
19969;SDS011;10146;47.754;9.566;2023-08-06T13:40:29;0.90;;;0.20;;
19969;SDS011;10146;47.754;9.566;2023-08-06T13:42:58;0.43;;;0.22;;
19969;SDS011;10146;47.754;9.566;2023-08-06T13:45:24;0.35;;;0.20;;
19969;SDS011;10146;47.754;9.566;2023-08-06T13:47:50;0.22;;;0.22;;
19969;SDS011;10146;47.754;9.566;2023-08-06T13:50:16;0.43;;;0.28;;
19969;SDS011;10146;47.754;9.566;2023-08-06T13:52:42;0.63;;;0.20;;
19969;SDS011;10146;47.754;9.566;2023-08-06T13:55:08;0.30;;;0.20;;
19969;SDS011;10146;47.754;9.566;2023-08-06T13:57:34;0.30;;;0.30;;
19969;SDS011;10146;47.754;9.566;2023-08-06T14:00:00;0.30;;;0.30;;
19969;SDS011;10146;47.754;9.566;2023-08-06T14:02:26;0.63;;;0.45;;
19969;SDS011;10146;47.754;9.566;2023-08-06T14:04:52;0.32;;;0.32;;
19969;SDS011;10146;47.754;9.566;2023-08-06T14:07:18;0.40;;;0.38;;
19969;SDS011;10146;47.754;9.566;2023-08-06T14:09:44;0.98;;;0.38;;
19969;SDS011;10146;47.754;9.566;2023-08-06T14:12:09;0.30;;;0.30;;
19969;SDS011;10146;47.754;9.566;2023-08-06T14:14:35;1.02;;;0.40;;
19969;SDS011;10146;47.754;9.566;2023-08-06T14:17:01;0.40;;;0.32;;
19969;SDS011;10146;47.754;9.566;2023-08-06T14:19:27;0.30;;;0.28;;
19969;SDS011;10146;47.754;9.566;2023-08-06T14:21:53;0.45;;;0.30;;
19969;SDS011;10146;47.754;9.566;2023-08-06T14:24:20;0.40;;;0.40;;
19969;SDS011;10146;47.754;9.566;2023-08-06T14:26:46;0.32;;;0.32;;
19969;SDS011;10146;47.754;9.566;2023-08-06T14:29:11;0.40;;;0.32;;
19969;SDS011;10146;47.754;9.566;2023-08-06T14:31:38;0.55;;;0.55;;
19969;SDS011;10146;47.754;9.566;2023-08-06T14:34:04;0.40;;;0.30;;
19969;SDS011;10146;47.754;9.566;2023-08-06T14:36:30;0.55;;;0.30;;
19969;SDS011;10146;47.754;9.566;2023-08-06T14:38:55;0.82;;;0.40;;
19969;SDS011;10146;47.754;9.566;2023-08-06T14:41:21;0.95;;;0.60;;
19969;SDS011;10146;47.754;9.566;2023-08-06T14:43:46;0.60;;;0.40;;
19969;SDS011;10146;47.754;9.566;2023-08-06T14:46:12;0.43;;;0.32;;
19969;SDS011;10146;47.754;9.566;2023-08-06T14:48:38;1.00;;;0.60;;
19969;SDS011;10146;47.754;9.566;2023-08-06T14:51:04;1.27;;;0.40;;
19969;SDS011;10146;47.754;9.566;2023-08-06T14:53:29;1.67;;;0.47;;